Time;durP1;ratioP1;P1;durP2;ratioP2;P2;SDS_P1;SDS_P2;PMS_P1;PMS_P2;Temp;Humidity;BMP_temperature;BMP_pressure;BME280_temperature;BME280_humidity;BME280_pressure;Samples;Min_cycle;Max_cycle;Signal;HPM_P1;HPM_P2
2022/08/07 00:00:05;;;;;;;6.28;3.58;;;;;;;-148.88;76.08;76431.34;4974406;28;20030;-77
2022/08/07 00:02:31;;;;;;;5.82;3.70;;;;;;;-148.88;76.66;76435.41;4974614;28;20105;-77
2022/08/07 00:04:56;;;;;;;5.25;3.80;;;;;;;-148.88;76.67;76435.41;4976363;28;20029;-78
2022/08/07 00:07:21;;;;;;;7.88;4.38;;;;;;;-148.88;75.52;76431.34;4976423;28;20034;-77
2022/08/07 00:09:46;;;;;;;7.00;4.15;;;;;;;-148.88;76.54;76449.63;4977580;28;20515;-78
2022/08/07 00:12:12;;;;;;;7.07;4.35;;;;;;;-148.88;77.14;76455.72;4977728;28;20034;-78
2022/08/07 00:14:37;;;;;;;7.35;4.10;;;;;;;-148.88;78.03;76467.91;4977685;28;20081;-77
2022/08/07 00:17:02;;;;;;;5.47;4.00;;;;;;;-148.88;78.10;76474.00;4977535;28;20037;-77
2022/08/07 00:19:30;;;;;;;5.05;3.95;;;;;;;-148.88;77.99;76469.94;4977652;28;20057;-78
2022/08/07 00:21:55;;;;;;;7.20;4.03;;;;;;;-148.88;78.41;76476.03;4977525;28;20395;-77
2022/08/07 00:24:20;;;;;;;5.55;3.88;;;;;;;-148.88;78.51;76478.06;4976182;28;20535;-77
2022/08/07 00:26:46;;;;;;;5.68;4.22;;;;;;;-148.88;78.60;76474.00;4976135;28;20488;-77
2022/08/07 00:29:11;;;;;;;8.15;4.68;;;;;;;-148.88;78.10;76476.03;4977429;28;20023;-77
2022/08/07 00:31:36;;;;;;;8.15;5.00;;;;;;;-148.88;78.93;76457.75;4977539;28;20035;-77
2022/08/07 00:34:01;;;;;;;7.70;4.88;;;;;;;-148.88;78.40;76455.72;4977553;28;20026;-77
2022/08/07 00:36:28;;;;;;;6.40;4.90;;;;;;;-148.88;78.26;76455.72;4977423;28;20026;-77
2022/08/07 00:38:53;;;;;;;9.30;5.70;;;;;;;-148.88;78.11;76463.84;4977412;28;20049;-77
2022/08/07 00:41:25;;;;;;;7.95;5.38;;;;;;;-148.88;77.81;76451.66;4977021;28;20058;-78
2022/08/07 00:43:51;;;;;;;6.80;5.30;;;;;;;-148.88;77.65;76447.59;4977082;28;20110;-77
2022/08/07 00:46:16;;;;;;;7.78;5.38;;;;;;;-148.88;77.68;76447.59;4977241;28;20458;-77
2022/08/07 00:48:41;;;;;;;9.05;6.00;;;;;;;-148.88;77.63;76449.63;4975834;28;20047;-77
2022/08/07 00:51:07;;;;;;;6.28;4.65;;;;;;;-148.88;77.99;76447.59;4977292;28;20499;-77
2022/08/07 00:53:32;;;;;;;8.55;5.28;;;;;;;-148.88;77.75;76451.66;4975741;28;20033;-77
2022/08/07 00:55:57;;;;;;;8.18;5.10;;;;;;;-148.88;78.21;76451.66;4976963;28;20034;-78
2022/08/07 00:58:23;;;;;;;8.10;5.45;;;;;;;-148.88;78.14;76467.91;4976907;28;20031;-77
2022/08/07 01:00:49;;;;;;;6.57;5.15;;;;;;;-148.88;78.18;76471.97;4976868;28;20038;-79
2022/08/07 01:03:14;;;;;;;7.43;5.43;;;;;;;-148.88;77.98;76482.13;4976668;28;20033;-77
2022/08/07 01:05:44;;;;;;;7.95;5.70;;;;;;;-148.88;78.09;76488.22;5004700;23;20047;-87
2022/08/07 01:08:10;;;;;;;6.93;5.38;;;;;;;-148.88;77.64;76496.34;4994205;28;20034;-89
2022/08/07 01:10:35;;;;;;;7.03;5.20;;;;;;;-148.88;78.25;76490.25;4995637;28;20100;-88
2022/08/07 01:13:00;;;;;;;7.22;5.32;;;;;;;-148.88;78.51;76488.22;4994180;28;20030;-88
2022/08/07 01:15:27;;;;;;;6.53;4.97;;;;;;;-148.88;78.45;76488.22;4993241;28;20125;-89
2022/08/07 01:17:52;;;;;;;7.07;4.85;;;;;;;-148.88;78.07;76486.19;4994499;28;20546;-88
2022/08/07 01:20:25;;;;;;;8.63;5.47;;;;;;;-148.88;79.23;76488.22;4994037;28;20018;-89
2022/08/07 01:22:50;;;;;;;9.48;5.60;;;;;;;-148.88;78.32;76480.09;4994334;28;20104;-88
2022/08/07 01:25:17;;;;;;;7.18;5.40;;;;;;;-148.88;78.42;76492.28;4994168;28;20053;-88
2022/08/07 01:27:42;;;;;;;8.15;5.88;;;;;;;-148.88;78.21;76512.59;4993918;28;20026;-88
2022/08/07 01:30:08;;;;;;;8.80;5.78;;;;;;;-148.88;78.05;76512.59;4994036;28;20026;-88
2022/08/07 01:32:34;;;;;;;8.82;5.75;;;;;;;-148.88;78.50;76528.84;4993855;28;20033;-89
2022/08/07 01:35:00;;;;;;;8.13;5.38;;;;;;;-148.88;78.60;76520.72;4995103;28;20028;-89
2022/08/07 01:37:26;;;;;;;9.50;6.32;;;;;;;-148.88;78.37;76532.91;4994348;28;20014;-89
2022/08/07 01:39:52;;;;;;;8.15;5.65;;;;;;;-148.88;78.40;76516.66;4993487;28;20026;-89
2022/08/07 01:42:17;;;;;;;7.88;5.90;;;;;;;-148.88;78.99;76512.59;4994852;28;20026;-89
2022/08/07 01:44:43;;;;;;;10.40;6.30;;;;;;;-148.88;79.07;76512.59;4993484;28;20054;-89
2022/08/07 01:47:09;;;;;;;8.25;6.55;;;;;;;-148.88;79.68;76520.72;4993371;28;20018;-89
2022/08/07 01:49:35;;;;;;;11.05;6.57;;;;;;;-148.88;80.30;76522.75;4993407;28;20181;-88
2022/08/07 01:52:02;;;;;;;8.45;5.68;;;;;;;-148.88;80.00;76516.66;4993661;28;20125;-88
2022/08/07 01:54:30;;;;;;;7.13;5.43;;;;;;;-148.88;79.69;76516.66;4994933;28;20102;-89
2022/08/07 01:57:03;;;;;;;7.65;5.57;;;;;;;-148.88;80.40;76524.78;4993680;28;20022;-88
2022/08/07 01:59:59;;;;;;;7.30;5.38;;;;;;;-148.88;80.03;76524.78;4994697;28;20101;-89
2022/08/07 02:02:33;;;;;;;9.35;5.80;;;;;;;-148.88;80.14;76524.78;4993372;28;20081;-88
2022/08/07 02:05:04;;;;;;;7.40;5.32;;;;;;;-148.88;80.23;76516.66;4993608;28;20346;-89
2022/08/07 02:07:34;;;;;;;6.53;5.10;;;;;;;-148.88;81.09;76524.78;4994178;28;20034;-88
2022/08/07 02:10:02;;;;;;;7.45;5.40;;;;;;;-148.88;80.79;76528.84;4995162;28;20026;-89
2022/08/07 02:12:34;;;;;;;9.07;5.38;;;;;;;-148.88;80.82;76522.75;4993836;28;20504;-88
2022/08/07 02:15:01;;;;;;;7.32;5.57;;;;;;;-148.88;81.25;76526.81;4994406;28;20034;-88
2022/08/07 02:17:27;;;;;;;7.85;5.47;;;;;;;-148.88;81.38;76541.03;4994741;28;20101;-88
2022/08/07 02:19:55;;;;;;;11.25;6.03;;;;;;;-148.88;81.53;76557.28;4993937;28;20389;-88
2022/08/07 02:22:22;;;;;;;10.77;6.97;;;;;;;-148.88;82.38;76559.31;4993233;28;20113;-89
2022/08/07 02:24:51;;;;;;;9.57;6.50;;;;;;;-148.88;81.68;76543.06;4993474;28;20373;-89
2022/08/07 02:27:20;;;;;;;8.20;6.03;;;;;;;-148.88;81.62;76545.09;4992856;28;20022;-88
2022/08/07 02:29:48;;;;;;;10.02;6.35;;;;;;;-148.88;81.75;76549.16;4995171;28;20145;-88
2022/08/07 02:32:15;;;;;;;12.40;7.13;;;;;;;-148.88;81.67;76553.22;4993330;28;20023;-88
2022/08/07 02:34:41;;;;;;;8.93;6.40;;;;;;;-148.88;81.83;76561.34;4993062;28;20027;-89
2022/08/07 02:37:09;;;;;;;8.98;5.78;;;;;;;-148.88;81.95;76553.22;4993987;28;20117;-88
2022/08/07 02:39:37;;;;;;;11.85;6.72;;;;;;;-148.88;82.09;76553.22;4994638;28;20401;-89
2022/08/07 02:42:03;;;;;;;9.05;6.18;;;;;;;-148.88;82.84;76549.16;4994419;28;20053;-88
2022/08/07 02:44:30;;;;;;;7.65;6.20;;;;;;;-148.88;82.57;76559.31;4994660;28;20536;-88
2022/08/07 02:46:57;;;;;;;10.10;6.78;;;;;;;-148.88;82.79;76553.22;4993114;28;20036;-90
2022/08/07 02:49:23;;;;;;;8.63;6.25;;;;;;;-148.88;83.08;76553.22;4993717;28;20018;-89
2022/08/07 02:51:49;;;;;;;9.52;6.72;;;;;;;-148.88;82.90;76547.13;4994118;28;20492;-88
2022/08/07 02:54:17;;;;;;;10.65;7.18;;;;;;;-148.88;83.31;76557.28;4992844;28;20103;-88
2022/08/07 02:56:46;;;;;;;11.93;7.10;;;;;;;-148.88;82.86;76565.41;4993991;28;20030;-89
2022/08/07 02:59:17;;;;;;;9.25;6.90;;;;;;;-148.88;82.99;76561.34;4992760;28;20029;-89
2022/08/07 03:01:44;;;;;;;11.68;7.22;;;;;;;-148.88;83.30;76559.31;4992710;28;20481;-88
2022/08/07 03:04:11;;;;;;;9.10;6.65;;;;;;;-148.88;83.35;76555.25;4992558;28;20373;-88
2022/08/07 03:06:38;;;;;;;9.68;6.60;;;;;;;-148.88;83.30;76559.31;4992656;28;20041;-88
2022/08/07 03:09:06;;;;;;;10.50;7.38;;;;;;;-148.88;83.65;76563.38;4992895;28;20026;-89
2022/08/07 03:11:33;;;;;;;9.05;6.90;;;;;;;-148.88;84.09;76577.59;4992965;28;20026;-88
2022/08/07 03:14:01;;;;;;;11.40;6.43;;;;;;;-148.88;84.26;76583.69;4994006;28;20110;-89
2022/08/07 03:16:27;;;;;;;10.02;6.80;;;;;;;-148.88;84.36;76589.78;4992884;28;20124;-88
2022/08/07 03:18:52;;;;;;;10.70;6.60;;;;;;;-148.88;84.66;76591.81;4994111;28;20049;-88
2022/08/07 03:21:18;;;;;;;7.75;5.80;;;;;;;-148.88;84.98;76597.91;4992389;28;20018;-88
2022/08/07 03:23:45;;;;;;;11.00;5.75;;;;;;;-148.88;85.12;76599.94;4994424;28;20033;-88
2022/08/07 03:26:17;;;;;;;7.88;5.90;;;;;;;-148.88;85.60;76589.78;4994389;28;20144;-88
2022/08/07 03:28:44;;;;;;;9.15;5.85;;;;;;;-148.88;84.96;76593.84;4992910;28;20077;-88
2022/08/07 03:31:19;;;;;;;9.45;6.05;;;;;;;-148.88;85.16;76593.84;4992331;28;20053;-88
2022/08/07 03:33:53;;;;;;;7.78;6.63;;;;;;;-148.88;86.14;76608.09;4993301;28;20204;-89
2022/08/07 03:36:22;;;;;;;8.45;6.32;;;;;;;-148.88;86.29;76622.31;4992448;28;20033;-88
2022/08/07 03:38:51;;;;;;;8.18;6.28;;;;;;;-148.88;86.86;76642.63;4996849;28;20329;-88
2022/08/07 03:41:16;;;;;;;12.40;7.03;;;;;;;-148.88;87.15;76660.91;4996399;28;20026;-88
2022/08/07 03:43:43;;;;;;;11.35;7.07;;;;;;;-148.88;88.00;76687.31;4996251;28;20044;-89
2022/08/07 03:46:13;;;;;;;11.55;7.85;;;;;;;-148.88;89.78;76703.56;4997221;28;20026;-89
2022/08/07 03:48:39;;;;;;;12.93;7.50;;;;;;;-148.88;89.98;76713.72;4996091;28;20560;-88
2022/08/07 03:51:06;;;;;;;12.43;8.23;;;;;;;-148.88;90.89;76723.88;4996196;28;20018;-85
2022/08/07 03:53:32;;;;;;;10.27;8.05;;;;;;;-148.88;92.06;76738.09;4997321;28;20030;-85
2022/08/07 03:55:58;;;;;;;11.07;8.20;;;;;;;-148.88;92.08;76744.19;4996187;28;20029;-84
2022/08/07 03:58:27;;;;;;;11.02;7.50;;;;;;;-148.88;92.26;76748.25;4996369;28;20022;-86
2022/08/07 04:00:56;;;;;;;8.93;7.47;;;;;;;-148.88;91.97;76746.22;4996086;28;20131;-86
2022/08/07 04:03:22;;;;;;;9.63;7.13;;;;;;;-148.88;91.66;76756.41;4996096;28;20076;-86
2022/08/07 04:05:48;;;;;;;11.00;7.55;;;;;;;-148.88;92.21;76736.06;4995478;28;20104;-85
2022/08/07 04:08:14;;;;;;;9.23;6.93;;;;;;;-148.88;92.04;76740.13;4995688;28;20389;-86
2022/08/07 04:10:41;;;;;;;10.65;8.13;;;;;;;-148.88;93.76;76752.31;4995764;28;20057;-85
2022/08/07 04:13:10;;;;;;;10.15;7.70;;;;;;;-148.88;94.28;76740.13;4995840;28;20034;-85
2022/08/07 04:15:37;;;;;;;10.98;7.13;;;;;;;-148.88;94.48;76729.97;4996836;28;20129;-86
2022/08/07 04:18:04;;;;;;;8.85;6.75;;;;;;;-148.88;93.22;76723.88;4997332;28;20034;-85
2022/08/07 04:20:30;;;;;;;9.30;7.18;;;;;;;-148.88;92.12;76717.78;4979347;28;20038;-86
2022/08/07 04:22:56;;;;;;;10.88;7.60;;;;;;;-148.88;92.87;76711.69;4996683;28;20030;-85
2022/08/07 04:25:22;;;;;;;11.30;6.90;;;;;;;-148.88;92.17;76709.66;4997025;28;20034;-85
2022/08/07 04:27:48;;;;;;;9.45;6.80;;;;;;;-148.88;91.68;76727.94;4996402;28;20019;-85
2022/08/07 04:30:13;;;;;;;7.85;6.57;;;;;;;-148.88;92.81;76732.00;4996886;28;20101;-86
2022/08/07 04:32:40;;;;;;;11.73;7.38;;;;;;;-148.88;93.67;76740.13;4996963;28;20068;-86
2022/08/07 04:35:06;;;;;;;9.68;7.60;;;;;;;-148.88;93.92;76727.94;4995609;28;20026;-85
2022/08/07 04:37:33;;;;;;;10.77;7.95;;;;;;;-148.88;93.70;76729.97;4997530;28;20357;-87
2022/08/07 04:39:59;;;;;;;9.95;7.40;;;;;;;-148.88;93.59;76715.75;4995786;28;20035;-87
2022/08/07 04:42:27;;;;;;;9.57;7.45;;;;;;;-148.88;93.38;76715.75;4997788;28;20030;-88
2022/08/07 04:44:54;;;;;;;10.30;7.10;;;;;;;-148.88;93.24;76713.72;4995192;28;20026;-86
2022/08/07 04:47:49;;;;;;;11.25;7.65;;;;;;;-148.88;93.48;76713.72;4995123;28;20030;-83
2022/08/07 04:50:24;;;;;;;;;;;;;;;-148.88;93.64;76711.69;4995647;28;20520;-84
2022/08/07 04:52:58;;;;;;;10.38;7.60;;;;;;;-148.88;93.85;76709.66;4996736;28;19936;-83
2022/08/07 04:55:38;;;;;;;10.02;7.82;;;;;;;-148.88;93.95;76707.63;4995074;28;20033;-83
2022/08/07 04:58:15;;;;;;;11.55;8.00;;;;;;;-148.88;93.99;76693.41;4994888;28;20018;-85
2022/08/07 05:01:13;;;;;;;11.80;8.02;;;;;;;-148.88;93.58;76691.38;4996274;28;20048;-84
2022/08/07 05:03:52;;;;;;;12.05;8.30;;;;;;;-148.88;93.43;76681.22;4994802;28;20023;-86
2022/08/07 05:06:24;;;;;;;11.05;7.20;;;;;;;-148.88;93.44;76673.09;4994421;28;20116;-85
2022/08/07 05:09:22;;;;;;;12.00;8.18;;;;;;;-148.88;92.89;76658.88;4996168;28;20042;-85
2022/08/07 05:11:50;;;;;;;14.13;8.57;;;;;;;-148.88;93.19;76658.88;4990964;28;20035;-86
2022/08/07 05:14:28;;;;;;;13.35;8.75;;;;;;;-148.88;93.68;76646.69;4994469;28;20026;-86
2022/08/07 05:16:59;;;;;;;11.68;8.05;;;;;;;-148.88;93.72;76644.66;4995004;28;20121;-84
2022/08/07 05:19:30;;;;;;;9.30;7.75;;;;;;;-148.88;93.92;76634.50;4996157;28;20022;-87
2022/08/07 05:21:59;;;;;;;10.05;7.07;;;;;;;-148.88;93.97;76630.44;4995684;28;20366;-85
2022/08/07 05:24:26;;;;;;;10.98;7.88;;;;;;;-148.88;93.68;76618.25;4995763;28;20050;-85
2022/08/07 05:26:55;;;;;;;10.48;8.00;;;;;;;-148.88;94.15;76614.19;4994438;28;20026;-85
2022/08/07 05:29:22;;;;;;;11.55;8.40;;;;;;;-148.88;94.11;76614.19;4994396;28;20026;-84
2022/08/07 05:31:49;;;;;;;11.40;8.13;;;;;;;-148.88;94.28;76610.13;4994353;28;20026;-84
2022/08/07 05:34:16;;;;;;;12.07;8.45;;;;;;;-148.88;94.23;76612.13;4994103;28;20025;-87
2022/08/07 05:36:50;;;;;;;11.88;8.43;;;;;;;-148.88;93.92;76606.06;4994094;28;20089;-87
2022/08/07 05:39:18;;;;;;;10.02;8.07;;;;;;;-148.88;93.87;76597.91;4994094;28;20037;-87
2022/08/07 05:41:47;;;;;;;9.35;7.30;;;;;;;-148.88;93.84;76589.78;4994059;28;20077;-86
2022/08/07 05:44:15;;;;;;;9.77;7.10;;;;;;;-148.88;93.51;76587.75;4994102;28;20076;-86
2022/08/07 05:46:42;;;;;;;9.93;8.07;;;;;;;-148.88;93.56;76575.56;4994110;28;20054;-86
2022/08/07 05:49:08;;;;;;;13.18;7.22;;;;;;;-148.88;93.06;76565.41;4993965;28;20025;-87
2022/08/07 05:51:34;;;;;;;11.48;7.22;;;;;;;-148.88;92.97;76557.28;4993847;28;20065;-86
2022/08/07 05:54:01;;;;;;;10.02;7.13;;;;;;;-148.88;92.89;76553.22;4994452;28;20018;-86
2022/08/07 05:56:27;;;;;;;10.07;7.88;;;;;;;-148.88;92.50;76541.03;4994447;28;20037;-86
2022/08/07 05:58:54;;;;;;;10.20;7.68;;;;;;;-148.88;92.57;76541.03;4994451;28;20113;-87
2022/08/07 06:01:22;;;;;;;9.15;7.45;;;;;;;-148.88;92.53;76528.84;4993252;28;20038;-86
2022/08/07 06:03:51;;;;;;;9.45;7.20;;;;;;;-148.88;91.81;76524.78;4993505;28;20018;-86
2022/08/07 06:06:22;;;;;;;10.30;6.95;;;;;;;-148.88;90.70;76512.59;4993131;28;20061;-86
2022/08/07 06:08:48;;;;;;;9.35;7.15;;;;;;;-148.88;90.80;76506.50;4994115;28;20473;-86
2022/08/07 06:11:15;;;;;;;9.38;7.07;;;;;;;-148.88;91.24;76502.44;4993433;28;20430;-87
2022/08/07 06:13:40;;;;;;;10.18;7.30;;;;;;;-148.88;91.39;76484.16;4993960;28;20026;-86
2022/08/07 06:16:06;;;;;;;9.63;6.78;;;;;;;-148.88;90.56;76476.03;4993029;28;20027;-86
2022/08/07 06:18:32;;;;;;;7.80;6.97;;;;;;;-148.88;91.04;76467.91;4993371;28;20015;-86
2022/08/07 06:21:03;;;;;;;8.73;6.90;;;;;;;-148.88;91.97;76455.72;4994639;28;20400;-87
2022/08/07 06:23:31;;;;;;;9.32;7.55;;;;;;;-148.88;93.20;76447.59;4994002;28;20531;-86
2022/08/07 06:25:57;;;;;;;11.00;7.88;;;;;;;-148.88;92.52;76447.59;4993375;28;20080;-88
2022/08/07 06:28:23;;;;;;;10.20;7.55;;;;;;;-148.88;93.24;76445.56;4994828;28;20026;-88
2022/08/07 06:30:48;;;;;;;9.10;7.75;;;;;;;-148.88;93.35;76435.41;4993445;28;20022;-88
2022/08/07 06:33:14;;;;;;;8.93;6.82;;;;;;;-148.88;92.41;76431.34;4993431;28;20034;-87
2022/08/07 06:35:39;;;;;;;10.15;7.45;;;;;;;-148.88;90.69;76425.25;4993550;28;20027;-87
2022/08/07 06:38:05;;;;;;;8.68;6.43;;;;;;;-148.88;90.73;76419.16;4993509;28;20090;-87
2022/08/07 06:40:38;;;;;;;6.95;5.40;;;;;;;-148.88;86.41;76415.06;4993559;28;20424;-87
2022/08/07 06:43:07;;;;;;;8.73;6.28;;;;;;;-148.88;87.18;76394.75;4993515;28;20034;-87
2022/08/07 06:45:33;;;;;;;8.18;6.22;;;;;;;-148.88;88.49;76388.66;4993418;28;20041;-88
2022/08/07 06:47:58;;;;;;;9.75;6.55;;;;;;;-148.88;89.43;76374.44;4993467;28;20030;-88
2022/08/07 06:50:24;;;;;;;7.65;6.05;;;;;;;-148.88;89.82;76360.22;4993114;28;20392;-87
2022/08/07 06:52:53;;;;;;;9.80;6.60;;;;;;;-148.88;89.12;76356.16;4992803;28;20048;-88
2022/08/07 06:55:22;;;;;;;9.13;6.28;;;;;;;-148.88;88.21;76350.06;4993812;28;20120;-88
2022/08/07 06:57:49;;;;;;;8.75;6.15;;;;;;;-148.88;84.36;76346.00;4993461;28;20085;-87
2022/08/07 07:00:16;;;;;;;9.77;6.65;;;;;;;-148.88;82.91;76317.56;4993472;28;20022;-88
2022/08/07 07:02:42;;;;;;;8.10;5.13;;;;;;;-148.88;81.88;76309.44;4994027;28;20469;-88
2022/08/07 07:07:45;;;;;;;;;;;;;;;;;;;;;
2022/08/07 07:10:28;;;;;;;7.82;5.00;;;;;;;-148.88;81.17;76260.69;4994115;28;20038;-87
2022/08/07 07:13:00;;;;;;;6.40;4.70;;;;;;;-148.88;81.68;76246.47;4991948;28;20045;-87
2022/08/07 07:15:33;;;;;;;7.68;4.97;;;;;;;-148.88;81.21;76236.31;4993259;28;20026;-87
2022/08/07 07:18:15;;;;;;;8.88;5.13;;;;;;;-148.88;78.17;76224.13;4992619;28;20073;-86
2022/08/07 07:20:51;;;;;;;9.23;4.72;;;;;;;-148.88;73.39;76216.00;4993814;28;20030;-87
2022/08/07 07:23:17;;;;;;;6.28;4.35;;;;;;;-148.88;73.40;76201.78;4993255;28;20026;-84
2022/08/07 07:25:45;;;;;;;8.00;4.88;;;;;;;-148.88;73.92;76191.63;4993321;28;20027;-85
2022/08/07 07:28:16;;;;;;;6.75;4.40;;;;;;;-148.88;72.36;76179.44;4992358;28;20499;-85
2022/08/07 07:30:52;;;;;;;7.43;3.83;;;;;;;-148.88;70.76;76171.31;4992103;28;20031;-84
2022/08/07 07:33:31;;;;;;;7.72;4.60;;;;;;;-148.88;71.85;76167.25;4993902;28;20362;-86
2022/08/07 07:36:00;;;;;;;6.97;4.70;;;;;;;-148.88;74.20;76148.97;4993290;28;20116;-87
2022/08/07 07:38:26;;;;;;;8.05;4.10;;;;;;;-148.88;74.66;76140.84;4993515;28;20038;-87
2022/08/07 07:41:07;;;;;;;6.43;4.15;;;;;;;-148.88;73.69;76102.22;4993181;28;20037;-88
2022/08/07 07:43:42;;;;;;;7.90;4.38;;;;;;;-148.88;73.54;76096.13;4992860;28;20445;-87
2022/08/07 07:46:09;;;;;;;6.25;4.20;;;;;;;-148.88;71.91;76069.72;4994021;28;20197;-87
2022/08/07 07:48:36;;;;;;;5.75;4.00;;;;;;;-148.88;71.15;76061.59;4992387;28;20022;-86
2022/08/07 07:51:03;;;;;;;4.82;3.58;;;;;;;-148.88;72.36;76053.47;4992534;28;20033;-86
2022/08/07 07:53:30;;;;;;;7.10;3.90;;;;;;;-148.88;71.92;76037.22;4993553;28;20440;-85
2022/08/07 07:55:58;;;;;;;5.72;4.28;;;;;;;-148.88;73.86;76014.88;4992283;28;20019;-83
2022/08/07 07:58:37;;;;;;;8.60;4.28;;;;;;;-148.88;73.60;75984.41;4993280;28;20090;-87
2022/08/07 08:01:04;;;;;;;5.63;4.22;;;;;;;-148.88;72.34;75976.28;4992160;28;20038;-86
2022/08/07 08:03:32;;;;;;;7.65;4.10;;;;;;;-148.88;69.79;75966.13;4992398;28;20117;-87
2022/08/07 08:06:03;;;;;;;8.23;4.00;;;;;;;-148.88;71.34;75949.88;4991887;28;20022;-86
2022/08/07 08:08:32;;;;;;;6.32;3.60;;;;;;;-148.88;70.46;75927.53;4993169;28;20022;-87
2022/08/07 08:10:59;;;;;;;5.68;3.53;;;;;;;-148.88;72.82;75917.38;4991551;28;20088;-87
2022/08/07 08:13:30;;;;;;;5.45;3.75;;;;;;;-148.88;68.12;75911.28;4991879;28;20374;-86
2022/08/07 08:16:00;;;;;;;7.50;3.70;;;;;;;-148.88;69.11;75888.94;4992468;28;20022;-87
2022/08/07 08:18:27;;;;;;;6.93;3.30;;;;;;;-148.88;66.06;75895.03;4991850;28;20034;-86
2022/08/07 08:21:00;;;;;;;5.38;3.20;;;;;;;-148.88;66.94;75888.94;4991679;28;20026;-87
2022/08/07 08:29:01;;;;;;;4.60;2.78;;;;;;;-148.88;67.92;75813.78;4996998;28;20460;-86
2022/08/07 08:31:36;;;;;;;5.95;2.53;;;;;;;-148.88;60.39;75801.59;4996956;28;20029;-86
2022/08/07 08:34:04;;;;;;;4.28;2.60;;;;;;;-148.88;61.95;75809.72;4995914;28;20018;-89
2022/08/07 08:36:32;;;;;;;5.25;2.88;;;;;;;-148.88;63.18;75781.28;4996740;28;20447;-87
2022/08/07 08:39:00;;;;;;;5.15;2.28;;;;;;;-148.88;57.28;75760.97;4996587;28;20019;-87
2022/08/07 08:41:39;;;;;;;7.32;2.15;;;;;;;-148.88;58.39;75756.91;4996060;28;20072;-88
2022/08/07 08:44:26;;;;;;;4.07;2.70;;;;;;;-148.88;57.92;75744.72;4996748;28;20049;-87
2022/08/07 08:47:01;;;;;;;6.18;2.40;;;;;;;-148.88;56.80;75716.28;4996089;28;20076;-86
2022/08/07 08:49:41;;;;;;;2.78;1.38;;;;;;;-148.88;51.53;75679.72;4995432;28;20022;-86
2022/08/07 08:52:25;;;;;;;2.53;1.70;;;;;;;-148.88;51.37;75671.59;4995714;28;20022;-86
2022/08/07 08:55:08;;;;;;;;;;;;;;;-148.88;52.77;75655.34;4995459;28;20448;-87
2022/08/07 08:57:39;;;;;;;4.93;1.90;;;;;;;-148.88;51.17;75624.88;4994913;28;20388;-88
2022/08/07 09:00:19;;;;;;;3.55;1.85;;;;;;;-148.88;51.94;75641.13;4995247;28;20029;-86
2022/08/07 09:03:02;;;;;;;3.83;1.55;;;;;;;-148.88;49.34;75610.66;4995139;28;20026;-87
2022/08/07 09:05:37;;;;;;;4.50;1.80;;;;;;;-148.88;48.69;75635.03;4994624;28;20045;-87
2022/08/07 09:08:27;;;;;;;3.92;1.42;;;;;;;-148.88;52.89;75610.66;4995192;28;20280;-85
2022/08/07 09:11:13;;;;;;;3.95;1.70;;;;;;;-148.88;49.21;75602.53;4994436;28;20084;-88
2022/08/07 09:14:38;;;;;;;2.33;1.42;;;;;;;-148.88;50.89;75563.97;4994224;28;20029;-87
2022/08/07 09:17:26;;;;;;;2.60;1.27;;;;;;;-148.88;48.24;75537.56;4988834;28;20109;-88
2022/08/07 09:20:00;;;;;;;2.28;1.17;;;;;;;-148.88;47.59;75521.31;4995409;28;20054;-87
2022/08/07 09:22:47;;;;;;;2.15;1.13;;;;;;;-148.88;44.59;75464.44;4995414;28;20027;-84
2022/08/07 09:25:23;;;;;;;4.93;1.10;;;;;;;-148.88;45.15;75468.50;4995968;28;20053;-84
2022/08/07 09:28:02;;;;;;;4.13;1.20;;;;;;;-148.88;45.89;75478.66;4994632;28;20122;-84
2022/08/07 09:30:42;;;;;;;2.80;1.48;;;;;;;-148.88;47.81;75442.09;4996256;28;20030;-85
2022/08/07 09:33:14;;;;;;;4.43;1.20;;;;;;;-148.88;47.92;75423.81;4994340;28;20475;-85
2022/08/07 09:35:47;;;;;;;4.05;1.83;;;;;;;-148.88;45.52;75411.63;4994039;28;20030;-84
2022/08/07 09:38:35;;;;;;;2.85;1.17;;;;;;;-148.88;46.00;75399.44;4994675;28;20033;-85
2022/08/07 09:41:22;;;;;;;2.97;1.25;;;;;;;-148.88;47.03;75350.69;4994800;28;20030;-85
2022/08/07 09:44:26;;;;;;;5.07;1.30;;;;;;;-148.88;43.84;75318.19;4994435;28;20029;-85
2022/08/07 09:47:08;;;;;;;2.85;1.20;;;;;;;-148.88;41.65;75334.44;4965684;28;20050;-86
2022/08/07 09:50:12;;;;;;;2.60;0.90;;;;;;;-148.88;40.76;75306.00;4995198;28;20125;-86
2022/08/07 09:52:56;;;;;;;2.15;1.10;;;;;;;-148.88;43.98;75269.47;4994246;28;20030;-87
2022/08/07 09:55:36;;;;;;;2.40;0.93;;;;;;;-148.88;45.80;75220.72;4994100;28;20350;-85
2022/08/07 09:58:37;;;;;;;3.20;1.20;;;;;;;-148.88;42.19;75255.25;4995369;28;20045;-88
2022/08/07 10:01:14;;;;;;;1.33;0.85;;;;;;;-148.88;40.80;75285.69;4995984;28;20033;-86
2022/08/07 10:04:04;;;;;;;2.25;1.17;;;;;;;-148.88;41.43;75249.16;4994123;28;20030;-87
2022/08/07 10:06:36;;;;;;;2.88;1.17;;;;;;;-148.88;41.42;75232.91;4993796;28;20116;-85
2022/08/07 10:09:20;;;;;;;2.40;1.38;;;;;;;-148.88;44.42;75184.16;4995342;28;20066;-86
2022/08/07 10:12:09;;;;;;;2.58;0.90;;;;;;;-148.88;44.47;75163.84;4991232;28;20030;-86
2022/08/07 10:14:49;;;;;;;2.90;0.98;;;;;;;-148.88;43.67;75100.88;4993914;28;20125;-86
2022/08/07 10:17:31;;;;;;;2.60;1.10;;;;;;;-148.88;38.60;75117.13;4993784;28;20507;-85
2022/08/07 10:20:20;;;;;;;2.95;1.00;;;;;;;-148.88;39.56;75147.59;4993578;28;20033;-87
2022/08/07 10:23:01;;;;;;;3.00;1.17;;;;;;;-148.88;39.77;75139.47;4994585;28;20030;-86
2022/08/07 10:25:45;;;;;;;2.70;1.10;;;;;;;-148.88;39.19;75100.88;4993606;28;20049;-86
2022/08/07 10:28:16;;;;;;;3.55;1.08;;;;;;;-148.88;38.40;75102.91;4993546;28;20037;-86
2022/08/07 10:31:28;;;;;;;2.28;1.33;;;;;;;-148.88;37.90;75076.53;4995371;28;20037;-87
2022/08/07 10:34:21;;;;;;;2.72;1.10;;;;;;;-148.88;37.44;75115.09;4970282;28;20069;-86
2022/08/07 10:36:58;;;;;;;1.92;1.10;;;;;;;-148.88;37.93;75096.81;4994783;28;20473;-87
2022/08/07 10:39:41;;;;;;;2.55;1.10;;;;;;;-148.88;39.81;75098.84;4993452;28;20440;-86
2022/08/07 10:42:14;;;;;;;2.90;1.50;;;;;;;-148.88;38.46;75119.16;4994102;28;20040;-86
2022/08/07 10:44:51;;;;;;;3.47;1.10;;;;;;;-148.88;38.63;75102.91;4994244;28;20022;-87
2022/08/07 10:47:57;;;;;;;1.50;0.80;;;;;;;-148.88;38.18;75066.38;4993227;28;20022;-87
2022/08/07 10:50:43;;;;;;;1.90;0.90;;;;;;;-148.88;37.88;75054.19;4993218;28;20038;-88
2022/08/07 10:53:13;;;;;;;2.35;0.90;;;;;;;-148.88;37.60;74977.00;4994065;28;20022;-85
2022/08/07 10:55:44;;;;;;;3.53;1.00;;;;;;;-148.88;36.56;75021.69;4993564;28;20030;-87
2022/08/07 10:58:21;;;;;;;3.05;1.10;;;;;;;-148.88;35.90;75042.00;4993575;28;20022;-86
2022/08/07 11:01:20;;;;;;;1.75;0.93;;;;;;;-148.88;36.02;74995.28;4995084;28;20113;-87
2022/08/07 11:03:54;;;;;;;2.55;0.93;;;;;;;-148.88;34.76;74952.63;4994537;28;20022;-86
2022/08/07 11:06:53;;;;;;;2.65;1.10;;;;;;;-148.88;35.02;74867.34;4993229;28;20041;-86
2022/08/07 11:09:25;;;;;;;1.80;0.85;;;;;;;-148.88;35.23;74922.19;4993270;28;20061;-86
2022/08/07 11:12:16;;;;;;;1.73;0.95;;;;;;;-148.88;33.34;74926.25;4995156;28;20030;-86
2022/08/07 11:15:08;;;;;;;1.90;1.02;;;;;;;-148.88;33.21;74871.41;4984687;28;20069;-87
2022/08/07 11:17:48;;;;;;;1.58;0.88;;;;;;;-148.88;32.16;74822.66;4984755;28;20038;-87
2022/08/07 11:20:32;;;;;;;3.88;0.80;;;;;;;-148.88;32.91;74849.06;4994350;28;20057;-88
2022/08/07 11:23:10;;;;;;;1.50;0.90;;;;;;;-148.88;32.53;74842.97;4992537;28;20022;-87
2022/08/07 11:25:39;;;;;;;1.70;1.00;;;;;;;-148.88;33.59;74851.09;4993270;28;20033;-88
2022/08/07 11:28:11;;;;;;;3.42;0.90;;;;;;;-148.88;32.06;74790.19;4992691;28;20022;-87
2022/08/07 11:30:44;;;;;;;3.10;0.90;;;;;;;-148.88;32.50;74903.91;4994082;28;20049;-88
2022/08/07 11:33:12;;;;;;;2.25;1.00;;;;;;;-148.88;33.30;74851.09;4993284;28;20507;-86
2022/08/07 11:36:15;;;;;;;1.52;0.70;;;;;;;-148.88;32.43;74859.22;4994077;28;20109;-88
2022/08/07 11:39:05;;;;;;;1.65;1.00;;;;;;;-148.88;31.53;74832.81;4980264;28;20030;-88
2022/08/07 11:41:38;;;;;;;2.58;1.08;;;;;;;-148.88;32.88;74871.41;4994283;28;20031;-85
2022/08/07 11:44:17;;;;;;;2.72;0.90;;;;;;;-148.88;33.00;74855.16;4992806;28;20432;-87
2022/08/07 11:46:57;;;;;;;1.42;0.90;;;;;;;-148.88;34.41;75005.44;4992555;28;20022;-87